sensor_id;sensor_type;location;lat;lon;timestamp;temperature;humidity
21092;DHT22;10704;42.678;23.288;2024-03-08T00:01:44;5.40;99.90
21092;DHT22;10704;42.678;23.288;2024-03-08T00:04:10;5.40;99.90
21092;DHT22;10704;42.678;23.288;2024-03-08T00:06:36;5.40;99.90
21092;DHT22;10704;42.678;23.288;2024-03-08T00:09:02;5.30;99.90
21092;DHT22;10704;42.678;23.288;2024-03-08T00:11:28;5.40;99.90
21092;DHT22;10704;42.678;23.288;2024-03-08T00:13:54;5.40;99.90
21092;DHT22;10704;42.678;23.288;2024-03-08T00:16:20;5.30;99.90
21092;DHT22;10704;42.678;23.288;2024-03-08T00:18:49;5.30;99.90
21092;DHT22;10704;42.678;23.288;2024-03-08T00:21:15;5.30;99.90
21092;DHT22;10704;42.678;23.288;2024-03-08T00:23:41;5.10;99.90
21092;DHT22;10704;42.678;23.288;2024-03-08T00:26:07;5.20;99.90
21092;DHT22;10704;42.678;23.288;2024-03-08T00:28:33;5.20;99.90
21092;DHT22;10704;42.678;23.288;2024-03-08T00:31:01;5.20;99.90
21092;DHT22;10704;42.678;23.288;2024-03-08T00:33:27;5.20;99.90
21092;DHT22;10704;42.678;23.288;2024-03-08T00:35:54;5.20;99.90
21092;DHT22;10704;42.678;23.288;2024-03-08T00:38:20;5.30;99.90
21092;DHT22;10704;42.678;23.288;2024-03-08T00:40:46;5.30;99.90
21092;DHT22;10704;42.678;23.288;2024-03-08T00:43:11;5.40;99.90
21092;DHT22;10704;42.678;23.288;2024-03-08T00:45:38;5.30;99.90
21092;DHT22;10704;42.678;23.288;2024-03-08T00:48:11;5.20;99.90
21092;DHT22;10704;42.678;23.288;2024-03-08T00:57:41;5.10;99.90
21092;DHT22;10704;42.678;23.288;2024-03-08T01:00:09;5.00;99.90
21092;DHT22;10704;42.678;23.288;2024-03-08T01:02:38;4.90;99.90
21092;DHT22;10704;42.678;23.288;2024-03-08T01:08:51;4.80;99.90
21092;DHT22;10704;42.678;23.288;2024-03-08T01:11:18;4.80;99.90
21092;DHT22;10704;42.678;23.288;2024-03-08T01:13:44;4.90;99.90
21092;DHT22;10704;42.678;23.288;2024-03-08T01:16:13;4.80;99.90
21092;DHT22;10704;42.678;23.288;2024-03-08T01:18:39;4.80;99.90
21092;DHT22;10704;42.678;23.288;2024-03-08T01:21:04;4.90;99.90
21092;DHT22;10704;42.678;23.288;2024-03-08T01:23:30;4.80;99.90
21092;DHT22;10704;42.678;23.288;2024-03-08T01:25:56;4.90;99.90
21092;DHT22;10704;42.678;23.288;2024-03-08T01:28:26;4.90;99.90
21092;DHT22;10704;42.678;23.288;2024-03-08T01:30:52;4.90;99.90
21092;DHT22;10704;42.678;23.288;2024-03-08T01:33:25;4.80;99.90
21092;DHT22;10704;42.678;23.288;2024-03-08T01:35:52;4.80;99.90
21092;DHT22;10704;42.678;23.288;2024-03-08T01:38:19;4.90;99.90
21092;DHT22;10704;42.678;23.288;2024-03-08T01:40:47;4.80;99.90
21092;DHT22;10704;42.678;23.288;2024-03-08T01:43:25;4.80;99.90
21092;DHT22;10704;42.678;23.288;2024-03-08T01:45:53;4.70;99.90
21092;DHT22;10704;42.678;23.288;2024-03-08T01:48:19;4.80;99.90
21092;DHT22;10704;42.678;23.288;2024-03-08T01:50:47;4.70;99.90
21092;DHT22;10704;42.678;23.288;2024-03-08T01:53:13;4.80;99.90
21092;DHT22;10704;42.678;23.288;2024-03-08T01:55:41;4.80;99.90
21092;DHT22;10704;42.678;23.288;2024-03-08T01:58:09;4.90;99.90
21092;DHT22;10704;42.678;23.288;2024-03-08T02:00:36;4.90;99.90
21092;DHT22;10704;42.678;23.288;2024-03-08T02:03:06;4.80;99.90
21092;DHT22;10704;42.678;23.288;2024-03-08T02:05:32;4.80;99.90
21092;DHT22;10704;42.678;23.288;2024-03-08T02:07:58;4.80;99.90
21092;DHT22;10704;42.678;23.288;2024-03-08T02:10:24;5.00;99.90
21092;DHT22;10704;42.678;23.288;2024-03-08T02:12:50;5.10;99.90
21092;DHT22;10704;42.678;23.288;2024-03-08T02:15:16;5.20;99.90
21092;DHT22;10704;42.678;23.288;2024-03-08T02:17:42;5.10;99.90
21092;DHT22;10704;42.678;23.288;2024-03-08T02:20:09;5.10;99.90
21092;DHT22;10704;42.678;23.288;2024-03-08T02:22:36;5.10;99.90
21092;DHT22;10704;42.678;23.288;2024-03-08T02:25:02;5.10;99.90
21092;DHT22;10704;42.678;23.288;2024-03-08T02:27:29;5.10;99.90
21092;DHT22;10704;42.678;23.288;2024-03-08T02:29:56;5.10;99.90
21092;DHT22;10704;42.678;23.288;2024-03-08T02:32:31;5.10;99.90
21092;DHT22;10704;42.678;23.288;2024-03-08T02:34:58;5.20;99.90
21092;DHT22;10704;42.678;23.288;2024-03-08T02:37:26;5.10;99.90
21092;DHT22;10704;42.678;23.288;2024-03-08T02:39:54;5.00;99.90
21092;DHT22;10704;42.678;23.288;2024-03-08T02:42:20;4.90;99.90
21092;DHT22;10704;42.678;23.288;2024-03-08T02:44:47;4.90;99.90
21092;DHT22;10704;42.678;23.288;2024-03-08T02:47:13;4.80;99.90
21092;DHT22;10704;42.678;23.288;2024-03-08T02:49:39;4.80;99.90
21092;DHT22;10704;42.678;23.288;2024-03-08T02:52:05;4.80;99.90
21092;DHT22;10704;42.678;23.288;2024-03-08T02:54:32;4.80;99.90
21092;DHT22;10704;42.678;23.288;2024-03-08T02:56:58;4.90;99.90
21092;DHT22;10704;42.678;23.288;2024-03-08T02:59:46;4.80;99.90
21092;DHT22;10704;42.678;23.288;2024-03-08T03:02:12;4.80;99.90
21092;DHT22;10704;42.678;23.288;2024-03-08T03:04:40;4.80;99.90
21092;DHT22;10704;42.678;23.288;2024-03-08T03:07:06;4.80;99.90
21092;DHT22;10704;42.678;23.288;2024-03-08T03:09:32;4.90;99.90
21092;DHT22;10704;42.678;23.288;2024-03-08T03:11:59;4.80;99.90
21092;DHT22;10704;42.678;23.288;2024-03-08T03:14:25;4.90;99.90
21092;DHT22;10704;42.678;23.288;2024-03-08T03:16:52;4.90;99.90
21092;DHT22;10704;42.678;23.288;2024-03-08T03:19:20;5.00;99.90
21092;DHT22;10704;42.678;23.288;2024-03-08T03:21:46;5.00;99.90
21092;DHT22;10704;42.678;23.288;2024-03-08T03:24:12;5.10;99.90
21092;DHT22;10704;42.678;23.288;2024-03-08T03:26:42;5.00;99.90
21092;DHT22;10704;42.678;23.288;2024-03-08T03:29:09;4.80;99.90
21092;DHT22;10704;42.678;23.288;2024-03-08T03:31:36;4.90;99.90
21092;DHT22;10704;42.678;23.288;2024-03-08T03:34:02;4.70;99.90
21092;DHT22;10704;42.678;23.288;2024-03-08T03:36:30;4.70;99.90
21092;DHT22;10704;42.678;23.288;2024-03-08T03:38:56;4.70;99.90
21092;DHT22;10704;42.678;23.288;2024-03-08T03:41:38;4.90;99.90
21092;DHT22;10704;42.678;23.288;2024-03-08T03:44:05;5.10;99.90
21092;DHT22;10704;42.678;23.288;2024-03-08T03:46:36;5.10;99.90
21092;DHT22;10704;42.678;23.288;2024-03-08T03:49:03;5.00;99.90
21092;DHT22;10704;42.678;23.288;2024-03-08T03:51:30;4.80;99.90
21092;DHT22;10704;42.678;23.288;2024-03-08T03:53:56;4.80;99.90
21092;DHT22;10704;42.678;23.288;2024-03-08T03:56:26;4.80;99.90
21092;DHT22;10704;42.678;23.288;2024-03-08T03:58:52;4.80;99.90
21092;DHT22;10704;42.678;23.288;2024-03-08T04:01:18;4.80;99.90
21092;DHT22;10704;42.678;23.288;2024-03-08T04:03:45;4.80;99.90
21092;DHT22;10704;42.678;23.288;2024-03-08T04:06:11;4.80;99.90
21092;DHT22;10704;42.678;23.288;2024-03-08T04:08:37;4.80;99.90
21092;DHT22;10704;42.678;23.288;2024-03-08T04:11:03;4.90;99.90
21092;DHT22;10704;42.678;23.288;2024-03-08T04:13:29;4.90;99.90
21092;DHT22;10704;42.678;23.288;2024-03-08T04:15:55;4.90;99.90
21092;DHT22;10704;42.678;23.288;2024-03-08T04:18:21;4.90;99.90
21092;DHT22;10704;42.678;23.288;2024-03-08T04:20:47;4.80;99.90
21092;DHT22;10704;42.678;23.288;2024-03-08T04:23:13;4.80;99.90
21092;DHT22;10704;42.678;23.288;2024-03-08T04:25:39;4.70;99.90
21092;DHT22;10704;42.678;23.288;2024-03-08T04:28:08;4.70;99.90
21092;DHT22;10704;42.678;23.288;2024-03-08T04:30:38;4.70;99.90
21092;DHT22;10704;42.678;23.288;2024-03-08T04:33:05;4.70;99.90
21092;DHT22;10704;42.678;23.288;2024-03-08T04:35:32;4.60;99.90
21092;DHT22;10704;42.678;23.288;2024-03-08T04:37:58;4.60;99.90
21092;DHT22;10704;42.678;23.288;2024-03-08T04:40:25;4.50;99.90
21092;DHT22;10704;42.678;23.288;2024-03-08T04:42:52;4.60;99.90
21092;DHT22;10704;42.678;23.288;2024-03-08T04:45:18;4.60;99.90
21092;DHT22;10704;42.678;23.288;2024-03-08T04:47:44;4.60;99.90
21092;DHT22;10704;42.678;23.288;2024-03-08T04:50:10;4.60;99.90
21092;DHT22;10704;42.678;23.288;2024-03-08T04:52:37;4.60;99.90
21092;DHT22;10704;42.678;23.288;2024-03-08T04:55:13;4.70;99.90
21092;DHT22;10704;42.678;23.288;2024-03-08T05:01:27;4.60;99.90
21092;DHT22;10704;42.678;23.288;2024-03-08T05:03:53;4.60;99.90
21092;DHT22;10704;42.678;23.288;2024-03-08T05:06:21;4.60;99.90
21092;DHT22;10704;42.678;23.288;2024-03-08T05:08:47;4.60;99.90
21092;DHT22;10704;42.678;23.288;2024-03-08T05:11:13;4.60;99.90
21092;DHT22;10704;42.678;23.288;2024-03-08T05:13:40;4.50;99.90
21092;DHT22;10704;42.678;23.288;2024-03-08T05:16:07;4.50;99.90
21092;DHT22;10704;42.678;23.288;2024-03-08T05:18:34;4.50;99.90
21092;DHT22;10704;42.678;23.288;2024-03-08T05:21:01;4.50;99.90
21092;DHT22;10704;42.678;23.288;2024-03-08T05:23:30;4.80;99.90
21092;DHT22;10704;42.678;23.288;2024-03-08T05:25:56;4.90;99.90
21092;DHT22;10704;42.678;23.288;2024-03-08T05:28:23;4.90;99.90
21092;DHT22;10704;42.678;23.288;2024-03-08T05:30:48;4.80;99.90
21092;DHT22;10704;42.678;23.288;2024-03-08T05:33:14;4.70;99.90
21092;DHT22;10704;42.678;23.288;2024-03-08T05:35:40;4.60;99.90
21092;DHT22;10704;42.678;23.288;2024-03-08T05:38:06;4.50;99.90
21092;DHT22;10704;42.678;23.288;2024-03-08T05:40:33;4.50;99.90
21092;DHT22;10704;42.678;23.288;2024-03-08T05:42:59;4.50;99.90
21092;DHT22;10704;42.678;23.288;2024-03-08T05:45:25;4.40;99.90
21092;DHT22;10704;42.678;23.288;2024-03-08T05:47:52;4.50;99.90
21092;DHT22;10704;42.678;23.288;2024-03-08T05:50:18;4.50;99.90
21092;DHT22;10704;42.678;23.288;2024-03-08T05:52:45;4.70;99.90
21092;DHT22;10704;42.678;23.288;2024-03-08T05:55:11;4.80;99.90
21092;DHT22;10704;42.678;23.288;2024-03-08T05:57:43;5.20;99.90
21092;DHT22;10704;42.678;23.288;2024-03-08T06:00:10;5.30;99.90
21092;DHT22;10704;42.678;23.288;2024-03-08T06:02:41;5.20;99.90
21092;DHT22;10704;42.678;23.288;2024-03-08T06:05:09;5.20;99.90
21092;DHT22;10704;42.678;23.288;2024-03-08T06:07:36;5.10;99.90
21092;DHT22;10704;42.678;23.288;2024-03-08T06:10:02;5.20;99.90
21092;DHT22;10704;42.678;23.288;2024-03-08T06:12:29;5.20;99.90
21092;DHT22;10704;42.678;23.288;2024-03-08T06:14:58;5.30;99.90
21092;DHT22;10704;42.678;23.288;2024-03-08T06:17:24;5.50;99.90
21092;DHT22;10704;42.678;23.288;2024-03-08T06:19:51;5.50;99.90
21092;DHT22;10704;42.678;23.288;2024-03-08T06:26:05;5.40;99.90
21092;DHT22;10704;42.678;23.288;2024-03-08T06:28:31;5.40;99.90
21092;DHT22;10704;42.678;23.288;2024-03-08T06:31:01;5.30;99.90
21092;DHT22;10704;42.678;23.288;2024-03-08T06:33:28;5.10;99.90
21092;DHT22;10704;42.678;23.288;2024-03-08T06:35:54;5.10;99.90
21092;DHT22;10704;42.678;23.288;2024-03-08T06:38:25;5.00;99.90
21092;DHT22;10704;42.678;23.288;2024-03-08T06:40:54;5.10;99.90
21092;DHT22;10704;42.678;23.288;2024-03-08T06:43:20;5.10;99.90
21092;DHT22;10704;42.678;23.288;2024-03-08T06:45:46;5.20;99.90
21092;DHT22;10704;42.678;23.288;2024-03-08T06:48:16;5.20;99.90
21092;DHT22;10704;42.678;23.288;2024-03-08T06:50:47;5.20;99.90
21092;DHT22;10704;42.678;23.288;2024-03-08T06:53:13;5.30;99.90
21092;DHT22;10704;42.678;23.288;2024-03-08T06:55:40;5.30;99.90
21092;DHT22;10704;42.678;23.288;2024-03-08T06:58:06;5.20;99.90
21092;DHT22;10704;42.678;23.288;2024-03-08T07:00:37;5.20;99.90
21092;DHT22;10704;42.678;23.288;2024-03-08T07:03:03;5.30;99.90
21092;DHT22;10704;42.678;23.288;2024-03-08T07:05:32;5.40;99.90
21092;DHT22;10704;42.678;23.288;2024-03-08T07:07:58;5.40;99.90
21092;DHT22;10704;42.678;23.288;2024-03-08T07:10:24;5.40;99.90
21092;DHT22;10704;42.678;23.288;2024-03-08T07:12:51;5.50;99.90
21092;DHT22;10704;42.678;23.288;2024-03-08T07:15:16;5.40;99.90
21092;DHT22;10704;42.678;23.288;2024-03-08T07:17:45;5.40;99.90
21092;DHT22;10704;42.678;23.288;2024-03-08T07:20:13;5.40;99.90
21092;DHT22;10704;42.678;23.288;2024-03-08T07:22:41;5.50;99.90
21092;DHT22;10704;42.678;23.288;2024-03-08T07:25:07;5.80;99.90
21092;DHT22;10704;42.678;23.288;2024-03-08T07:27:34;5.80;99.90
21092;DHT22;10704;42.678;23.288;2024-03-08T07:30:02;5.70;99.90
21092;DHT22;10704;42.678;23.288;2024-03-08T07:32:28;5.80;99.90
21092;DHT22;10704;42.678;23.288;2024-03-08T07:34:58;5.90;99.90
21092;DHT22;10704;42.678;23.288;2024-03-08T07:37:27;6.10;99.90
21092;DHT22;10704;42.678;23.288;2024-03-08T07:39:53;6.20;99.90
21092;DHT22;10704;42.678;23.288;2024-03-08T07:42:19;6.20;99.90
21092;DHT22;10704;42.678;23.288;2024-03-08T07:44:45;6.00;99.90
21092;DHT22;10704;42.678;23.288;2024-03-08T07:47:14;5.90;99.90
21092;DHT22;10704;42.678;23.288;2024-03-08T07:49:40;5.90;99.90
21092;DHT22;10704;42.678;23.288;2024-03-08T07:52:06;6.00;99.90
21092;DHT22;10704;42.678;23.288;2024-03-08T07:54:33;6.10;99.90
21092;DHT22;10704;42.678;23.288;2024-03-08T07:57:00;6.20;99.90
21092;DHT22;10704;42.678;23.288;2024-03-08T07:59:28;6.20;99.90
21092;DHT22;10704;42.678;23.288;2024-03-08T08:01:55;6.30;99.90
21092;DHT22;10704;42.678;23.288;2024-03-08T08:04:21;6.30;99.90
21092;DHT22;10704;42.678;23.288;2024-03-08T08:06:50;6.40;99.90
21092;DHT22;10704;42.678;23.288;2024-03-08T08:09:17;6.30;99.90
21092;DHT22;10704;42.678;23.288;2024-03-08T08:11:54;6.40;99.90
21092;DHT22;10704;42.678;23.288;2024-03-08T08:14:20;6.50;99.90
21092;DHT22;10704;42.678;23.288;2024-03-08T08:16:47;6.80;99.90
21092;DHT22;10704;42.678;23.288;2024-03-08T08:19:14;7.20;99.90
21092;DHT22;10704;42.678;23.288;2024-03-08T08:21:41;7.30;99.90
21092;DHT22;10704;42.678;23.288;2024-03-08T08:24:07;7.40;99.90
21092;DHT22;10704;42.678;23.288;2024-03-08T08:26:33;7.50;99.90
21092;DHT22;10704;42.678;23.288;2024-03-08T08:28:59;7.70;99.90
21092;DHT22;10704;42.678;23.288;2024-03-08T08:31:26;7.70;99.90
21092;DHT22;10704;42.678;23.288;2024-03-08T08:33:52;7.60;99.90
21092;DHT22;10704;42.678;23.288;2024-03-08T08:36:24;7.70;99.90
21092;DHT22;10704;42.678;23.288;2024-03-08T08:38:50;7.90;99.90
21092;DHT22;10704;42.678;23.288;2024-03-08T08:41:16;8.10;99.90
21092;DHT22;10704;42.678;23.288;2024-03-08T08:43:43;8.20;99.90
21092;DHT22;10704;42.678;23.288;2024-03-08T08:46:12;8.50;99.90
21092;DHT22;10704;42.678;23.288;2024-03-08T08:48:40;8.70;99.90
21092;DHT22;10704;42.678;23.288;2024-03-08T08:51:09;8.90;99.90
21092;DHT22;10704;42.678;23.288;2024-03-08T08:53:41;8.90;99.90
21092;DHT22;10704;42.678;23.288;2024-03-08T08:56:12;9.00;99.90
21092;DHT22;10704;42.678;23.288;2024-03-08T08:58:44;9.20;99.90
21092;DHT22;10704;42.678;23.288;2024-03-08T09:01:10;9.10;99.90
21092;DHT22;10704;42.678;23.288;2024-03-08T09:03:37;9.30;99.90
21092;DHT22;10704;42.678;23.288;2024-03-08T09:06:04;9.70;99.90
21092;DHT22;10704;42.678;23.288;2024-03-08T09:08:30;10.00;99.90
21092;DHT22;10704;42.678;23.288;2024-03-08T09:10:56;10.00;99.90
21092;DHT22;10704;42.678;23.288;2024-03-08T09:13:22;9.80;99.90
21092;DHT22;10704;42.678;23.288;2024-03-08T09:15:48;9.70;99.90
21092;DHT22;10704;42.678;23.288;2024-03-08T09:18:14;9.60;99.90
21092;DHT22;10704;42.678;23.288;2024-03-08T09:20:40;9.30;99.90
21092;DHT22;10704;42.678;23.288;2024-03-08T09:23:06;9.10;99.90
21092;DHT22;10704;42.678;23.288;2024-03-08T09:25:34;9.00;99.90
21092;DHT22;10704;42.678;23.288;2024-03-08T09:28:00;8.90;99.90
21092;DHT22;10704;42.678;23.288;2024-03-08T09:30:26;8.90;99.90
21092;DHT22;10704;42.678;23.288;2024-03-08T09:32:52;9.10;99.90
21092;DHT22;10704;42.678;23.288;2024-03-08T09:35:18;9.80;99.90
21092;DHT22;10704;42.678;23.288;2024-03-08T09:37:45;10.60;99.90
21092;DHT22;10704;42.678;23.288;2024-03-08T09:40:13;12.00;99.90
21092;DHT22;10704;42.678;23.288;2024-03-08T09:42:42;13.20;99.90
21092;DHT22;10704;42.678;23.288;2024-03-08T09:45:10;14.40;94.30
21092;DHT22;10704;42.678;23.288;2024-03-08T09:47:39;14.40;91.30
21092;DHT22;10704;42.678;23.288;2024-03-08T09:50:08;14.30;91.10
21092;DHT22;10704;42.678;23.288;2024-03-08T09:52:42;15.20;88.70
21092;DHT22;10704;42.678;23.288;2024-03-08T09:55:12;15.80;88.10
21092;DHT22;10704;42.678;23.288;2024-03-08T09:57:43;15.20;85.30
21092;DHT22;10704;42.678;23.288;2024-03-08T10:00:28;14.40;85.30
21092;DHT22;10704;42.678;23.288;2024-03-08T10:02:54;12.80;89.90
21092;DHT22;10704;42.678;23.288;2024-03-08T10:05:26;12.20;92.00
21092;DHT22;10704;42.678;23.288;2024-03-08T10:07:52;11.70;92.90
21092;DHT22;10704;42.678;23.288;2024-03-08T10:10:19;11.20;94.20
21092;DHT22;10704;42.678;23.288;2024-03-08T10:12:46;10.90;95.90
21092;DHT22;10704;42.678;23.288;2024-03-08T10:15:12;10.80;96.50
21092;DHT22;10704;42.678;23.288;2024-03-08T10:17:42;10.80;97.10
21092;DHT22;10704;42.678;23.288;2024-03-08T10:20:16;10.40;98.10
21092;DHT22;10704;42.678;23.288;2024-03-08T10:22:42;10.70;98.80
21092;DHT22;10704;42.678;23.288;2024-03-08T10:25:11;11.60;98.00
21092;DHT22;10704;42.678;23.288;2024-03-08T10:27:40;13.60;93.60
21092;DHT22;10704;42.678;23.288;2024-03-08T10:30:16;14.20;91.00
21092;DHT22;10704;42.678;23.288;2024-03-08T10:32:46;13.70;90.80
21092;DHT22;10704;42.678;23.288;2024-03-08T10:35:12;13.00;91.60
21092;DHT22;10704;42.678;23.288;2024-03-08T10:37:49;12.50;91.90
21092;DHT22;10704;42.678;23.288;2024-03-08T10:40:25;11.90;92.00
21092;DHT22;10704;42.678;23.288;2024-03-08T10:42:59;11.60;93.30
21092;DHT22;10704;42.678;23.288;2024-03-08T10:45:35;11.20;93.40
21092;DHT22;10704;42.678;23.288;2024-03-08T10:48:30;10.80;94.00
21092;DHT22;10704;42.678;23.288;2024-03-08T10:51:02;10.90;94.30
21092;DHT22;10704;42.678;23.288;2024-03-08T10:53:29;11.10;94.50
21092;DHT22;10704;42.678;23.288;2024-03-08T10:55:58;11.50;94.00
21092;DHT22;10704;42.678;23.288;2024-03-08T10:58:26;11.70;93.50
21092;DHT22;10704;42.678;23.288;2024-03-08T11:00:56;12.00;92.40
21092;DHT22;10704;42.678;23.288;2024-03-08T11:06:18;12.30;91.50
21092;DHT22;10704;42.678;23.288;2024-03-08T11:08:48;12.20;91.60
21092;DHT22;10704;42.678;23.288;2024-03-08T11:11:30;12.20;91.80
21092;DHT22;10704;42.678;23.288;2024-03-08T11:13:56;12.10;91.70
21092;DHT22;10704;42.678;23.288;2024-03-08T11:18:58;13.20;89.60
21092;DHT22;10704;42.678;23.288;2024-03-08T11:21:31;13.50;86.70
21092;DHT22;10704;42.678;23.288;2024-03-08T11:24:06;15.30;83.70
21092;DHT22;10704;42.678;23.288;2024-03-08T11:26:33;17.00;79.50
21092;DHT22;10704;42.678;23.288;2024-03-08T11:32:15;16.20;75.50
21092;DHT22;10704;42.678;23.288;2024-03-08T11:34:47;14.90;78.30
21092;DHT22;10704;42.678;23.288;2024-03-08T11:37:14;15.20;79.80
21092;DHT22;10704;42.678;23.288;2024-03-08T11:39:46;16.50;77.70
21092;DHT22;10704;42.678;23.288;2024-03-08T11:42:14;17.00;74.90
21092;DHT22;10704;42.678;23.288;2024-03-08T11:44:41;17.60;72.10
21092;DHT22;10704;42.678;23.288;2024-03-08T11:47:10;18.60;69.60
21092;DHT22;10704;42.678;23.288;2024-03-08T11:49:38;19.20;65.80
21092;DHT22;10704;42.678;23.288;2024-03-08T11:52:05;18.80;63.20
21092;DHT22;10704;42.678;23.288;2024-03-08T11:54:31;19.20;61.30
21092;DHT22;10704;42.678;23.288;2024-03-08T11:56:57;18.70;65.20
21092;DHT22;10704;42.678;23.288;2024-03-08T11:59:29;19.00;64.80
21092;DHT22;10704;42.678;23.288;2024-03-08T12:02:04;18.40;61.30
21092;DHT22;10704;42.678;23.288;2024-03-08T12:04:31;18.70;61.90
21092;DHT22;10704;42.678;23.288;2024-03-08T12:07:00;18.50;63.60
21092;DHT22;10704;42.678;23.288;2024-03-08T12:09:37;18.60;59.70
21092;DHT22;10704;42.678;23.288;2024-03-08T12:12:04;18.70;62.30
21092;DHT22;10704;42.678;23.288;2024-03-08T12:14:33;18.80;61.50
21092;DHT22;10704;42.678;23.288;2024-03-08T12:16:59;18.70;60.70
21092;DHT22;10704;42.678;23.288;2024-03-08T12:19:28;18.80;60.90
21092;DHT22;10704;42.678;23.288;2024-03-08T12:21:55;18.90;59.90
21092;DHT22;10704;42.678;23.288;2024-03-08T12:24:20;17.60;60.30
21092;DHT22;10704;42.678;23.288;2024-03-08T12:26:48;16.80;65.60
21092;DHT22;10704;42.678;23.288;2024-03-08T12:31:53;15.80;65.30
21092;DHT22;10704;42.678;23.288;2024-03-08T12:34:20;14.70;68.20
21092;DHT22;10704;42.678;23.288;2024-03-08T12:36:50;14.30;70.50
21092;DHT22;10704;42.678;23.288;2024-03-08T12:39:21;13.50;73.20
21092;DHT22;10704;42.678;23.288;2024-03-08T12:41:53;13.20;74.60
21092;DHT22;10704;42.678;23.288;2024-03-08T12:44:20;12.90;76.80
21092;DHT22;10704;42.678;23.288;2024-03-08T12:46:51;13.30;76.70
21092;DHT22;10704;42.678;23.288;2024-03-08T12:49:19;14.10;76.20
21092;DHT22;10704;42.678;23.288;2024-03-08T12:51:48;14.50;73.50
21092;DHT22;10704;42.678;23.288;2024-03-08T12:54:14;15.20;73.00
21092;DHT22;10704;42.678;23.288;2024-03-08T12:56:40;15.60;71.80
21092;DHT22;10704;42.678;23.288;2024-03-08T12:59:09;15.60;70.60
21092;DHT22;10704;42.678;23.288;2024-03-08T13:01:35;16.00;70.00
21092;DHT22;10704;42.678;23.288;2024-03-08T13:04:05;16.10;69.00
21092;DHT22;10704;42.678;23.288;2024-03-08T13:06:32;15.80;69.40
21092;DHT22;10704;42.678;23.288;2024-03-08T13:08:58;15.80;69.60
21092;DHT22;10704;42.678;23.288;2024-03-08T13:11:26;16.30;70.00
21092;DHT22;10704;42.678;23.288;2024-03-08T13:13:53;16.40;67.70
21092;DHT22;10704;42.678;23.288;2024-03-08T13:16:19;16.20;67.10
21092;DHT22;10704;42.678;23.288;2024-03-08T13:18:46;15.70;68.10
21092;DHT22;10704;42.678;23.288;2024-03-08T13:21:14;15.50;69.10
21092;DHT22;10704;42.678;23.288;2024-03-08T13:23:41;15.50;69.90
21092;DHT22;10704;42.678;23.288;2024-03-08T13:26:12;14.90;69.70
21092;DHT22;10704;42.678;23.288;2024-03-08T13:28:51;14.70;69.30
21092;DHT22;10704;42.678;23.288;2024-03-08T13:31:20;15.30;69.80
21092;DHT22;10704;42.678;23.288;2024-03-08T13:33:46;15.70;70.40
21092;DHT22;10704;42.678;23.288;2024-03-08T13:36:15;15.80;68.30
21092;DHT22;10704;42.678;23.288;2024-03-08T13:38:50;15.50;67.60
21092;DHT22;10704;42.678;23.288;2024-03-08T13:41:16;14.90;68.10
21092;DHT22;10704;42.678;23.288;2024-03-08T13:43:47;14.40;68.90
21092;DHT22;10704;42.678;23.288;2024-03-08T13:46:15;14.20;70.00
21092;DHT22;10704;42.678;23.288;2024-03-08T13:48:41;13.80;71.00
21092;DHT22;10704;42.678;23.288;2024-03-08T13:51:09;13.50;72.10
21092;DHT22;10704;42.678;23.288;2024-03-08T13:53:41;13.40;72.50
21092;DHT22;10704;42.678;23.288;2024-03-08T13:56:07;13.00;72.70
21092;DHT22;10704;42.678;23.288;2024-03-08T13:58:37;12.90;74.10
21092;DHT22;10704;42.678;23.288;2024-03-08T14:01:03;12.60;75.10
21092;DHT22;10704;42.678;23.288;2024-03-08T14:03:31;12.40;75.80
21092;DHT22;10704;42.678;23.288;2024-03-08T14:05:58;11.80;76.60
21092;DHT22;10704;42.678;23.288;2024-03-08T14:08:25;11.70;77.90
21092;DHT22;10704;42.678;23.288;2024-03-08T14:10:52;11.70;78.70
21092;DHT22;10704;42.678;23.288;2024-03-08T14:13:19;11.90;78.20
21092;DHT22;10704;42.678;23.288;2024-03-08T14:15:46;11.60;78.80
21092;DHT22;10704;42.678;23.288;2024-03-08T14:18:13;11.50;79.40
21092;DHT22;10704;42.678;23.288;2024-03-08T14:20:41;11.40;80.10
21092;DHT22;10704;42.678;23.288;2024-03-08T14:23:07;11.20;80.60
21092;DHT22;10704;42.678;23.288;2024-03-08T14:25:33;11.00;81.40
21092;DHT22;10704;42.678;23.288;2024-03-08T14:27:59;10.80;82.90
21092;DHT22;10704;42.678;23.288;2024-03-08T14:30:34;10.80;83.10
21092;DHT22;10704;42.678;23.288;2024-03-08T14:33:07;10.90;82.90
21092;DHT22;10704;42.678;23.288;2024-03-08T14:35:35;10.60;83.00
21092;DHT22;10704;42.678;23.288;2024-03-08T14:38:02;10.50;83.70
21092;DHT22;10704;42.678;23.288;2024-03-08T14:40:28;10.50;84.30
21092;DHT22;10704;42.678;23.288;2024-03-08T14:42:56;10.50;84.50
21092;DHT22;10704;42.678;23.288;2024-03-08T14:45:22;10.20;85.10
21092;DHT22;10704;42.678;23.288;2024-03-08T14:47:50;10.10;86.40
21092;DHT22;10704;42.678;23.288;2024-03-08T14:50:20;10.10;87.90
21092;DHT22;10704;42.678;23.288;2024-03-08T14:52:46;9.70;89.40
21092;DHT22;10704;42.678;23.288;2024-03-08T14:55:17;9.60;90.90
21092;DHT22;10704;42.678;23.288;2024-03-08T14:57:45;9.50;91.50
21092;DHT22;10704;42.678;23.288;2024-03-08T15:00:12;9.40;91.80
21092;DHT22;10704;42.678;23.288;2024-03-08T15:03:02;9.30;92.20
21092;DHT22;10704;42.678;23.288;2024-03-08T15:05:28;9.20;93.00
21092;DHT22;10704;42.678;23.288;2024-03-08T15:07:58;9.20;93.60
21092;DHT22;10704;42.678;23.288;2024-03-08T15:10:28;9.30;94.60
21092;DHT22;10704;42.678;23.288;2024-03-08T15:12:56;9.30;94.90
21092;DHT22;10704;42.678;23.288;2024-03-08T15:15:25;9.10;95.60
21092;DHT22;10704;42.678;23.288;2024-03-08T15:17:52;9.00;97.20
21092;DHT22;10704;42.678;23.288;2024-03-08T15:20:19;8.90;97.20
21092;DHT22;10704;42.678;23.288;2024-03-08T15:22:54;8.60;98.40
21092;DHT22;10704;42.678;23.288;2024-03-08T15:25:24;8.30;99.90
21092;DHT22;10704;42.678;23.288;2024-03-08T15:27:54;8.10;99.90
21092;DHT22;10704;42.678;23.288;2024-03-08T15:30:20;8.00;99.90
21092;DHT22;10704;42.678;23.288;2024-03-08T15:32:52;8.00;99.90
21092;DHT22;10704;42.678;23.288;2024-03-08T15:35:26;8.20;99.90
21092;DHT22;10704;42.678;23.288;2024-03-08T15:37:55;8.00;99.90
21092;DHT22;10704;42.678;23.288;2024-03-08T15:40:23;8.00;99.90
21092;DHT22;10704;42.678;23.288;2024-03-08T15:42:55;8.00;99.90
21092;DHT22;10704;42.678;23.288;2024-03-08T15:45:22;8.00;99.90
21092;DHT22;10704;42.678;23.288;2024-03-08T15:47:53;7.80;99.90
21092;DHT22;10704;42.678;23.288;2024-03-08T15:50:19;7.60;99.90
21092;DHT22;10704;42.678;23.288;2024-03-08T15:52:49;7.50;99.90
21092;DHT22;10704;42.678;23.288;2024-03-08T15:55:17;7.40;99.90
21092;DHT22;10704;42.678;23.288;2024-03-08T15:57:49;7.30;99.90
21092;DHT22;10704;42.678;23.288;2024-03-08T16:00:17;7.10;99.90